Terminal Aerodrome Forecast
Issued by NWS Lake Charles, LA

Home | Current Version | Previous Version | Text Only | Print | Product List | Glossary On
Versions: 1 2 3 4 5 6 7 8 9 10 11 12 13 14 15 16 17 18 19
000
FTUS44 KLCH 301121
TAFAEX
TAF
KAEX 301121Z 3012/0112 21006KT P6SM SCT020 BKN200
      TEMPO 3012/3013 4SM BR
     FM301700 22008KT P6SM VCTS BKN040CB
     FM010200 VRB04KT P6SM BKN250=

USA.gov is the U.S. government's official web portal to all federal, state and local government web resources and services.